Portada
METAR-TAF:

METAR-TAF

Aeropuertos :

Aeropuerto de Burdeos-Mérignac

Burdeos, Francia

latitud: 44-50N, longitud: 000-42W, altitud: 49 m

Observación

El informe se hizo hace 38 minutos, a las 06:30 UTC
Viento 3 kt del suroeste
Temperatura 19°C
Humedad 88%
Presión 1018 hPa
Visibilidad 10 km o más
Cielo nuboso a una altura de 4900 ft

METAR: LFBD 140630Z AUTO 23003KT 9999 BKN049 19/17 Q1018 NOSIG

Hora: 09:08 (07:08 UTC)

Pronóstico

El informe se hizo hace 2 horas y 8 minutos, a las 05:00 UTC
Pronóstico válido del 14 a las 06 UTC al 15 a las 12 UTC
Viento 3 kt con dirección variable
Visibilidad 10 km o más
sin nubes por debajo de 1500 m y sin presencia de cumulonimbus.
Probabilidad 30% :
Temporalmente
del 15 a las 05 UTC al 15 a las 09 UTC
Cielo nuboso a una altura de 8500 ft, Cumulus congestus.
chaparrones de lluvia

TAF: LFBD 140500Z 1406/1512 VRB03KT CAVOK TX29/1512Z TN17/1406Z PROB30 TEMPO 1505/1509 -SHRA BKN085TCU

Observaciones y pronósticos meteorológicos de más de 4000 aeropuertos (mensajes METAR y TAF).

Los puntos amarillos y rojos representan las estaciones disponibles.

Ponga el ratón en el punto deseado para ver el nombre de la estación.

Haga clic para ver las observaciones y los pronósticos meteorológicos.

Para cambiar el mapa : haga clic en los botones verdes con una cruz de color negro para hacer un zoom, en el botón verde con un guión para alejar o en las flechas verdes para mapas adyacentes.


METAR-TAF: